createdAt,value
2018-04-07T00:01:06.945Z,31.70
2018-04-07T00:03:42.093Z,31.70
2018-04-07T00:06:16.409Z,31.70
2018-04-07T00:08:51.659Z,31.60
2018-04-07T00:11:26.215Z,31.50
2018-04-07T00:14:00.502Z,31.70
2018-04-07T00:16:34.809Z,31.60
2018-04-07T00:19:09.270Z,31.80
2018-04-07T00:21:43.656Z,31.90
2018-04-07T00:24:18.188Z,32.00
2018-04-07T00:26:52.610Z,32.00
2018-04-07T00:29:27.017Z,32.10
2018-04-07T00:32:01.361Z,32.30
2018-04-07T00:34:35.726Z,32.20
2018-04-07T00:37:10.202Z,32.20
2018-04-07T00:39:45.414Z,32.20
2018-04-07T00:42:19.862Z,32.20
2018-04-07T00:44:54.367Z,32.30
2018-04-07T00:47:28.716Z,32.40
2018-04-07T00:50:03.055Z,32.10
2018-04-07T00:52:49.274Z,32.30
2018-04-07T00:55:23.541Z,32.60
2018-04-07T00:57:58.068Z,32.60
2018-04-07T01:00:32.376Z,32.50
2018-04-07T01:03:06.666Z,32.40
2018-04-07T01:05:40.948Z,32.30
2018-04-07T01:08:15.286Z,32.30
2018-04-07T01:10:49.727Z,32.40
2018-04-07T01:13:24.018Z,32.40
2018-04-07T01:15:58.406Z,32.40
2018-04-07T01:18:32.898Z,32.00
2018-04-07T01:21:08.146Z,32.20
2018-04-07T01:23:42.594Z,32.20
2018-04-07T01:26:17.074Z,32.40
2018-04-07T01:28:51.535Z,32.50
2018-04-07T01:31:25.908Z,32.20
2018-04-07T01:34:00.375Z,33.30
2018-04-07T01:36:35.611Z,33.40
2018-04-07T01:39:10.103Z,33.40
2018-04-07T01:41:44.557Z,33.30
2018-04-07T01:44:18.982Z,33.00
2018-04-07T01:46:53.268Z,33.20
2018-04-07T01:49:28.519Z,33.10
2018-04-07T01:52:02.758Z,33.00
2018-04-07T01:54:37.127Z,32.90
2018-04-07T01:57:12.995Z,32.90
2018-04-07T01:59:47.400Z,32.90
2018-04-07T02:02:21.767Z,32.90
2018-04-07T02:04:56.079Z,32.80
2018-04-07T02:07:30.594Z,32.70
2018-04-07T02:10:05.730Z,32.60
2018-04-07T02:12:40.222Z,32.50
2018-04-07T02:15:14.590Z,32.50
2018-04-07T02:17:49.206Z,32.60
2018-04-07T02:20:23.501Z,32.50
2018-04-07T02:22:57.937Z,32.50
2018-04-07T02:25:33.073Z,32.50
2018-04-07T02:28:07.381Z,32.50
2018-04-07T02:30:41.910Z,32.50
2018-04-07T02:33:16.426Z,32.40
2018-04-07T02:35:50.674Z,32.40
2018-04-07T02:38:25.020Z,32.40
2018-04-07T02:41:00.082Z,32.40
2018-04-07T02:43:34.423Z,32.40
2018-04-07T02:46:08.695Z,32.30
2018-04-07T02:48:43.637Z,32.40
2018-04-07T02:51:18.054Z,32.50
2018-04-07T02:53:52.496Z,33.00
2018-04-07T02:56:26.852Z,33.20
2018-04-07T02:59:01.232Z,33.00
2018-04-07T03:01:35.578Z,32.90
2018-04-07T03:04:10.213Z,32.80
2018-04-07T03:06:44.495Z,32.70
2018-04-07T03:09:18.788Z,32.80
2018-04-07T03:11:54.095Z,32.70
2018-04-07T03:14:28.331Z,32.80
2018-04-07T03:17:02.726Z,32.60
2018-04-07T03:19:37.131Z,32.80
2018-04-07T03:22:11.586Z,33.00
2018-04-07T03:24:45.881Z,33.40
2018-04-07T03:27:20.182Z,32.00
2018-04-07T03:29:54.532Z,33.00
2018-04-07T03:32:28.845Z,33.60
2018-04-07T03:35:04.142Z,33.50
2018-04-07T03:37:38.459Z,33.50
2018-04-07T03:40:12.776Z,33.60
2018-04-07T03:42:47.212Z,33.70
2018-04-07T03:45:21.762Z,33.60
2018-04-07T03:47:56.074Z,33.70
2018-04-07T03:50:31.211Z,33.70
2018-04-07T03:53:06.335Z,33.70
2018-04-07T03:55:40.747Z,33.60
2018-04-07T03:58:15.171Z,33.70
2018-04-07T04:00:49.515Z,34.00
2018-04-07T04:03:23.896Z,34.00
2018-04-07T04:05:58.249Z,33.90
2018-04-07T04:08:33.476Z,34.00
2018-04-07T04:11:07.906Z,33.80
2018-04-07T04:13:43.103Z,33.80
2018-04-07T04:16:17.542Z,33.70
2018-04-07T04:18:51.837Z,33.80
2018-04-07T04:21:26.150Z,33.70
2018-04-07T04:24:00.543Z,33.70
2018-04-07T04:26:35.035Z,33.60
2018-04-07T04:29:09.318Z,33.50
2018-04-07T04:31:43.701Z,33.60
2018-04-07T04:34:18.128Z,33.50
2018-04-07T04:36:52.623Z,32.90
2018-04-07T04:39:27.058Z,33.30
2018-04-07T04:42:01.408Z,33.00
2018-04-07T04:44:35.876Z,33.40
2018-04-07T04:47:10.300Z,34.00
2018-04-07T04:49:45.414Z,33.90
2018-04-07T04:52:19.867Z,33.90
2018-04-07T04:54:54.414Z,33.90
2018-04-07T04:57:28.734Z,33.80
2018-04-07T05:00:03.342Z,33.70
2018-04-07T05:02:37.740Z,33.70
2018-04-07T05:05:12.166Z,31.90
2018-04-07T05:07:46.569Z,32.90
2018-04-07T05:10:20.929Z,34.30
2018-04-07T05:12:55.299Z,34.10
2018-04-07T05:15:29.659Z,34.10
2018-04-07T05:18:04.562Z,34.00
2018-04-07T05:20:38.926Z,33.90
2018-04-07T05:23:13.344Z,33.90
2018-04-07T05:25:47.744Z,34.40
2018-04-07T05:28:23.698Z,33.80
2018-04-07T05:30:58.141Z,33.70
2018-04-07T05:33:32.498Z,33.90
2018-04-07T05:36:06.843Z,33.70
2018-04-07T05:38:41.228Z,33.20
2018-04-07T05:41:15.474Z,34.10
2018-04-07T05:43:50.146Z,34.30
2018-04-07T05:46:24.560Z,34.30
2018-04-07T05:48:58.883Z,34.20
2018-04-07T05:51:33.233Z,34.10
2018-04-07T05:54:07.498Z,34.10
2018-04-07T05:56:41.927Z,34.20
2018-04-07T05:59:16.198Z,34.20
2018-04-07T06:01:51.390Z,34.30
2018-04-07T06:04:25.790Z,34.20
2018-04-07T06:07:00.434Z,34.30
2018-04-07T06:09:34.750Z,33.70
2018-04-07T06:12:09.052Z,33.90
2018-04-07T06:14:43.334Z,33.80
2018-04-07T06:17:17.672Z,34.20
2018-04-07T06:19:52.002Z,34.20
2018-04-07T06:22:27.084Z,33.70
2018-04-07T06:25:01.779Z,33.10
2018-04-07T06:27:36.068Z,32.90
2018-04-07T06:30:10.387Z,33.00
2018-04-07T06:32:44.860Z,32.50
2018-04-07T06:35:19.218Z,32.30
2018-04-07T06:37:53.629Z,32.00
2018-04-07T06:40:27.986Z,32.00
2018-04-07T06:43:02.521Z,32.30
2018-04-07T06:45:36.773Z,32.10
2018-04-07T06:48:11.124Z,32.20
2018-04-07T06:50:45.522Z,31.70
2018-04-07T06:53:19.916Z,32.00
2018-04-07T06:55:55.029Z,31.20
2018-04-07T06:58:29.483Z,31.10
2018-04-07T07:01:03.785Z,30.80
2018-04-07T07:03:38.038Z,31.20
2018-04-07T07:06:12.333Z,30.70
2018-04-07T07:08:46.799Z,30.90
2018-04-07T07:11:21.142Z,30.20
2018-04-07T07:13:56.502Z,31.30
2018-04-07T07:16:30.846Z,31.30
2018-04-07T07:19:05.916Z,33.80
2018-04-07T07:21:40.361Z,33.50
2018-04-07T07:24:14.721Z,33.50
2018-04-07T07:26:49.222Z,33.60
2018-04-07T07:29:23.557Z,33.60
2018-04-07T07:31:57.840Z,33.50
2018-04-07T07:34:32.143Z,33.90
2018-04-07T07:37:06.473Z,33.90
2018-04-07T07:39:40.884Z,33.70
2018-04-07T07:42:16.252Z,33.20
2018-04-07T07:44:50.759Z,33.20
2018-04-07T07:47:25.219Z,33.10
2018-04-07T07:49:59.418Z,32.90
2018-04-07T07:52:33.804Z,32.80
2018-04-07T07:55:08.437Z,33.20
2018-04-07T07:57:42.916Z,33.40
2018-04-07T08:00:17.335Z,33.40
2018-04-07T08:02:52.024Z,33.40
2018-04-07T08:05:26.389Z,33.20
2018-04-07T08:08:00.754Z,32.90
2018-04-07T08:10:35.160Z,32.10
2018-04-07T08:13:09.510Z,32.70
2018-04-07T08:15:43.910Z,32.80
2018-04-07T08:18:18.310Z,32.60
2018-04-07T08:20:52.649Z,32.50
2018-04-07T08:23:26.994Z,32.40
2018-04-07T08:26:01.374Z,32.40
2018-04-07T08:28:35.812Z,32.30
2018-04-07T08:31:10.277Z,32.20
2018-04-07T08:33:44.978Z,32.40
2018-04-07T08:36:19.471Z,32.50
2018-04-07T08:38:53.900Z,32.40
2018-04-07T08:41:28.293Z,32.40
2018-04-07T08:44:02.645Z,32.30
2018-04-07T08:46:37.179Z,32.10
2018-04-07T08:49:11.586Z,32.00
2018-04-07T08:51:45.882Z,32.00
2018-04-07T08:54:20.206Z,31.90
2018-04-07T08:56:55.496Z,31.80
2018-04-07T08:59:30.822Z,31.80
2018-04-07T09:02:05.304Z,31.80
2018-04-07T09:04:39.599Z,31.80
2018-04-07T09:07:13.950Z,31.70
2018-04-07T09:09:48.517Z,31.60
2018-04-07T09:12:22.931Z,31.80
2018-04-07T09:14:57.332Z,31.90
2018-04-07T09:17:31.636Z,31.70
2018-04-07T09:20:05.922Z,32.00
2018-04-07T09:22:40.674Z,31.60
2018-04-07T09:25:15.717Z,31.50
2018-04-07T09:27:50.068Z,31.50
2018-04-07T09:30:24.574Z,30.80
2018-04-07T09:32:59.048Z,30.80
2018-04-07T09:35:33.536Z,30.30
2018-04-07T09:38:08.017Z,30.30
2018-04-07T09:40:42.331Z,30.00
2018-04-07T09:43:16.870Z,30.00
2018-04-07T09:45:51.185Z,28.90
2018-04-07T09:48:25.603Z,28.20
2018-04-07T09:51:00.840Z,28.60
2018-04-07T09:53:35.194Z,28.50
2018-04-07T09:56:09.478Z,29.10
2018-04-07T09:58:44.258Z,28.50
2018-04-07T10:01:18.684Z,29.80
2018-04-07T10:03:55.779Z,28.90
2018-04-07T10:06:30.090Z,29.70
2018-04-07T10:09:04.449Z,30.00
2018-04-07T10:11:38.873Z,30.10
2018-04-07T10:14:13.217Z,29.80
2018-04-07T10:16:47.605Z,29.70
2018-04-07T10:19:21.966Z,29.90
2018-04-07T10:21:56.336Z,29.60
2018-04-07T10:24:30.664Z,29.60
2018-04-07T10:27:04.999Z,29.20
2018-04-07T10:29:39.340Z,29.80
2018-04-07T10:32:13.634Z,30.00
2018-04-07T10:34:48.070Z,30.20
2018-04-07T10:37:22.433Z,31.50
2018-04-07T10:39:56.906Z,31.10
2018-04-07T10:42:31.177Z,31.60
2018-04-07T10:45:05.466Z,31.60
2018-04-07T10:47:39.945Z,31.60
2018-04-07T10:50:14.186Z,31.90
2018-04-07T10:52:48.637Z,31.80
2018-04-07T10:55:22.905Z,32.10
2018-04-07T10:57:57.133Z,32.10
2018-04-07T11:00:31.550Z,32.70
2018-04-07T11:03:05.969Z,33.20
2018-04-07T11:05:40.374Z,33.20
2018-04-07T11:08:14.669Z,32.80
2018-04-07T11:10:48.938Z,33.00
2018-04-07T11:13:23.438Z,33.00
2018-04-07T11:15:57.755Z,32.40
2018-04-07T11:18:32.160Z,32.90
2018-04-07T11:21:06.502Z,33.00
2018-04-07T11:23:41.584Z,33.10
2018-04-07T11:26:15.903Z,33.10
2018-04-07T11:28:50.223Z,32.80
2018-04-07T11:31:24.618Z,32.90
2018-04-07T11:33:58.998Z,32.90
2018-04-07T11:36:33.421Z,32.80
2018-04-07T11:39:07.856Z,32.20
2018-04-07T11:41:42.418Z,31.80
2018-04-07T11:44:16.798Z,31.20
2018-04-07T11:46:51.802Z,32.70
2018-04-07T11:49:26.253Z,31.60
2018-04-07T11:52:00.532Z,32.70
2018-04-07T11:54:35.022Z,32.70
2018-04-07T11:57:10.254Z,32.30
2018-04-07T11:59:44.574Z,32.30
2018-04-07T12:02:18.891Z,32.80
2018-04-07T12:04:53.219Z,32.70
2018-04-07T12:07:27.550Z,32.80
2018-04-07T12:10:02.025Z,32.60
2018-04-07T12:12:37.175Z,31.40
2018-04-07T12:15:11.741Z,31.40
2018-04-07T12:17:46.471Z,32.50
2018-04-07T12:20:20.765Z,32.30
2018-04-07T12:22:55.166Z,31.90
2018-04-07T12:25:29.610Z,32.40
2018-04-07T12:28:04.014Z,32.40
2018-04-07T12:30:38.418Z,32.50
2018-04-07T12:33:12.733Z,32.10
2018-04-07T12:35:49.364Z,32.50
2018-04-07T12:38:36.333Z,32.30
2018-04-07T12:41:10.703Z,32.40
2018-04-07T12:43:45.194Z,32.50
2018-04-07T12:46:20.411Z,32.20
2018-04-07T12:48:54.874Z,32.20
2018-04-07T12:51:29.360Z,31.90
2018-04-07T12:54:03.815Z,32.00
2018-04-07T12:56:38.200Z,32.20
2018-04-07T12:59:12.494Z,32.30
2018-04-07T13:01:47.699Z,30.50
2018-04-07T13:04:22.117Z,30.50
2018-04-07T13:06:56.539Z,30.90
2018-04-07T13:09:31.022Z,30.90
2018-04-07T13:12:06.139Z,32.00
2018-04-07T13:14:40.466Z,31.90
2018-04-07T13:17:14.757Z,31.60
2018-04-07T13:19:49.100Z,31.90
2018-04-07T13:22:23.499Z,31.30
2018-04-07T13:24:58.672Z,31.40
2018-04-07T13:27:33.208Z,31.30
2018-04-07T13:30:07.532Z,30.90
2018-04-07T13:32:42.061Z,31.10
2018-04-07T13:35:16.295Z,31.60
2018-04-07T13:37:51.485Z,31.20
2018-04-07T13:40:25.997Z,31.40
2018-04-07T13:43:00.557Z,31.20
2018-04-07T13:45:35.050Z,28.90
2018-04-07T13:48:09.362Z,31.20
2018-04-07T13:50:43.714Z,30.70
2018-04-07T13:53:18.075Z,30.00
2018-04-07T13:55:52.752Z,30.30
2018-04-07T13:58:27.141Z,29.70
2018-04-07T14:01:01.528Z,30.50
2018-04-07T14:03:35.963Z,30.70
2018-04-07T14:06:10.329Z,30.60
2018-04-07T14:08:44.987Z,31.60
2018-04-07T14:11:19.269Z,29.10
2018-04-07T14:13:53.591Z,27.50
2018-04-07T14:16:28.079Z,26.70
2018-04-07T14:19:02.447Z,25.80
2018-04-07T14:21:36.951Z,25.10
2018-04-07T14:24:11.399Z,26.60
2018-04-07T14:26:45.911Z,25.70
2018-04-07T14:29:20.177Z,26.40
2018-04-07T14:31:54.452Z,26.20
2018-04-07T14:34:29.864Z,26.00
2018-04-07T14:37:04.307Z,25.10
2018-04-07T14:39:38.603Z,24.80
2018-04-07T14:42:13.041Z,26.20
2018-04-07T14:44:47.298Z,24.90
2018-04-07T14:47:22.484Z,25.50
2018-04-07T14:49:57.724Z,24.10
2018-04-07T14:52:32.179Z,24.10
2018-04-07T14:55:06.481Z,24.80
2018-04-07T14:57:41.058Z,26.70
2018-04-07T15:00:15.458Z,24.20
2018-04-07T15:02:49.846Z,26.10
2018-04-07T15:05:25.082Z,25.40
2018-04-07T15:07:59.492Z,25.30
2018-04-07T15:10:33.892Z,25.80
2018-04-07T15:13:08.145Z,24.90
2018-04-07T15:15:42.546Z,25.30
2018-04-07T15:18:16.882Z,23.80
2018-04-07T15:20:51.498Z,24.30
2018-04-07T15:23:26.025Z,23.50
2018-04-07T15:26:00.358Z,24.30
2018-04-07T15:28:34.898Z,25.70
2018-04-07T15:31:09.138Z,25.80
2018-04-07T15:33:43.453Z,22.80
2018-04-07T15:36:17.928Z,23.80
2018-04-07T15:38:52.355Z,26.10
2018-04-07T15:41:26.675Z,25.20
2018-04-07T15:44:00.966Z,25.50
2018-04-07T15:46:35.310Z,24.70
2018-04-07T15:49:09.930Z,23.10
2018-04-07T15:51:45.737Z,25.30
2018-04-07T15:54:20.222Z,25.30
2018-04-07T15:56:54.524Z,25.00
2018-04-07T15:59:29.046Z,24.40
2018-04-07T16:02:04.320Z,25.40
2018-04-07T16:04:38.695Z,25.40
2018-04-07T16:07:13.259Z,26.10
2018-04-07T16:09:47.703Z,26.50
2018-04-07T16:12:22.002Z,23.10
2018-04-07T16:14:56.371Z,25.30
2018-04-07T16:17:31.398Z,26.80
2018-04-07T16:20:07.385Z,27.00
2018-04-07T16:22:41.655Z,27.00
2018-04-07T16:25:15.992Z,26.60
2018-04-07T16:27:50.305Z,28.10
2018-04-07T16:30:24.627Z,26.60
2018-04-07T16:32:58.976Z,27.60
2018-04-07T16:35:33.266Z,27.80
2018-04-07T16:38:08.506Z,27.80
2018-04-07T16:40:42.949Z,27.80
2018-04-07T16:43:17.381Z,28.10
2018-04-07T16:45:51.681Z,29.00
2018-04-07T16:48:26.092Z,28.80
2018-04-07T16:51:00.441Z,28.70
2018-04-07T16:53:35.037Z,29.30
2018-04-07T16:56:09.370Z,29.00
2018-04-07T16:58:44.494Z,28.80
2018-04-07T17:01:18.938Z,28.80
2018-04-07T17:03:53.574Z,28.90
2018-04-07T17:06:27.849Z,28.80
2018-04-07T17:09:02.174Z,30.00
2018-04-07T17:11:36.533Z,29.20
2018-04-07T17:14:11.619Z,29.70
2018-04-07T17:16:45.965Z,29.70
2018-04-07T17:19:20.290Z,30.80
2018-04-07T17:21:54.602Z,31.10
2018-04-07T17:24:29.022Z,30.00
2018-04-07T17:27:03.487Z,31.30
2018-04-07T17:29:37.752Z,29.80
2018-04-07T17:32:12.071Z,29.30
2018-04-07T17:34:46.422Z,29.70
2018-04-07T17:37:20.729Z,29.60
2018-04-07T17:39:55.038Z,29.70
2018-04-07T17:42:29.309Z,31.40
2018-04-07T17:45:03.616Z,31.40
2018-04-07T17:47:38.930Z,32.10
2018-04-07T17:50:13.301Z,32.10
2018-04-07T17:52:47.731Z,32.60
2018-04-07T17:55:22.038Z,31.60
2018-04-07T17:57:56.499Z,32.40
2018-04-07T18:00:30.842Z,32.50
2018-04-07T18:03:05.918Z,32.40
2018-04-07T18:05:40.374Z,32.30
2018-04-07T18:08:14.706Z,33.10
2018-04-07T18:10:49.111Z,33.10
2018-04-07T18:13:23.425Z,33.10
2018-04-07T18:15:57.857Z,32.90
2018-04-07T18:18:32.378Z,32.70
2018-04-07T18:21:06.643Z,32.70
2018-04-07T18:23:41.816Z,33.20
2018-04-07T18:26:16.260Z,33.10
2018-04-07T18:28:50.980Z,33.30
2018-04-07T18:31:25.286Z,33.20
2018-04-07T18:33:59.562Z,33.30
2018-04-07T18:36:33.931Z,33.20
2018-04-07T18:39:08.318Z,33.40
2018-04-07T18:41:42.697Z,33.60
2018-04-07T18:44:17.045Z,33.70
2018-04-07T18:46:51.364Z,34.20
2018-04-07T18:49:25.757Z,34.30
2018-04-07T18:52:00.153Z,34.40
2018-04-07T18:54:35.356Z,34.30
2018-04-07T18:57:09.700Z,34.30
2018-04-07T18:59:44.818Z,34.50
2018-04-07T19:02:19.162Z,34.40
2018-04-07T19:04:53.699Z,34.40
2018-04-07T19:07:28.047Z,34.60
2018-04-07T19:10:02.375Z,34.60
2018-04-07T19:12:36.798Z,32.50
2018-04-07T19:15:11.162Z,34.60
2018-04-07T19:17:45.610Z,34.60
2018-04-07T19:20:20.019Z,35.40
2018-04-07T19:22:54.459Z,34.70
2018-04-07T19:25:28.927Z,34.80
2018-04-07T19:28:03.340Z,35.60
2018-04-07T19:30:38.574Z,35.60
2018-04-07T19:33:12.887Z,35.60
2018-04-07T19:35:47.161Z,36.60
2018-04-07T19:38:21.508Z,37.10
2018-04-07T19:40:55.858Z,37.70
2018-04-07T19:43:30.197Z,37.20
2018-04-07T19:46:04.641Z,37.40
2018-04-07T19:48:39.101Z,35.90
2018-04-07T19:51:13.470Z,36.20
2018-04-07T19:53:47.808Z,35.80
2018-04-07T19:56:22.110Z,35.10
2018-04-07T19:58:56.453Z,34.60
2018-04-07T20:01:30.730Z,37.40
2018-04-07T20:04:05.087Z,34.90
2018-04-07T20:06:39.445Z,36.30
2018-04-07T20:09:13.715Z,35.60
2018-04-07T20:11:48.060Z,35.10
2018-04-07T20:14:22.420Z,36.70
2018-04-07T20:16:56.846Z,34.20
2018-04-07T20:19:31.147Z,33.70
2018-04-07T20:22:05.552Z,35.10
2018-04-07T20:24:40.026Z,34.40
2018-04-07T20:27:14.542Z,32.70
2018-04-07T20:29:48.979Z,33.80
2018-04-07T20:32:23.262Z,33.50
2018-04-07T20:34:57.596Z,33.90
2018-04-07T20:37:32.836Z,34.50
2018-04-07T20:40:07.229Z,34.50
2018-04-07T20:42:41.788Z,34.40
2018-04-07T20:45:16.102Z,34.40
2018-04-07T20:47:50.421Z,34.50
2018-04-07T20:50:24.753Z,34.40
2018-04-07T20:52:59.092Z,35.00
2018-04-07T20:55:33.505Z,35.70
2018-04-07T20:58:07.953Z,36.60
2018-04-07T21:00:42.259Z,36.50
2018-04-07T21:03:16.713Z,37.80
2018-04-07T21:05:51.197Z,38.00
2018-04-07T21:08:26.154Z,36.60
2018-04-07T21:11:00.590Z,36.50
2018-04-07T21:13:35.144Z,37.60
2018-04-07T21:16:09.469Z,36.80
2018-04-07T21:18:43.766Z,38.20
2018-04-07T21:21:18.196Z,37.20
2018-04-07T21:23:52.482Z,36.10
2018-04-07T21:26:26.822Z,36.50
2018-04-07T21:29:01.168Z,37.50
2018-04-07T21:31:35.671Z,37.50
2018-04-07T21:34:09.960Z,35.70
2018-04-07T21:36:44.514Z,36.50
2018-04-07T21:39:18.948Z,35.10
2018-04-07T21:41:53.411Z,35.90
2018-04-07T21:44:27.801Z,35.90
2018-04-07T21:47:02.161Z,36.20
2018-04-07T21:49:36.530Z,36.30
2018-04-07T21:52:11.047Z,36.70
2018-04-07T21:54:45.435Z,37.20
2018-04-07T21:57:19.883Z,37.90
2018-04-07T21:59:54.417Z,37.20
2018-04-07T22:02:28.720Z,37.30
2018-04-07T22:05:02.997Z,37.10
2018-04-07T22:07:37.327Z,39.20
2018-04-07T22:10:11.659Z,39.70
2018-04-07T22:12:45.962Z,39.80
2018-04-07T22:15:20.268Z,40.20
2018-04-07T22:17:55.491Z,41.30
2018-04-07T22:20:29.982Z,40.70
2018-04-07T22:23:04.507Z,41.40
2018-04-07T22:25:39.703Z,42.10
2018-04-07T22:28:14.140Z,42.00
2018-04-07T22:30:48.442Z,42.20
2018-04-07T22:33:22.836Z,41.40
2018-04-07T22:35:58.029Z,40.50
2018-04-07T22:38:32.398Z,40.20
2018-04-07T22:41:07.079Z,40.40
2018-04-07T22:43:41.363Z,40.10
2018-04-07T22:46:15.823Z,40.00
2018-04-07T22:48:50.121Z,40.00
2018-04-07T22:51:24.418Z,39.80
2018-04-07T22:53:58.852Z,39.90
2018-04-07T22:56:33.218Z,40.60
2018-04-07T22:59:07.539Z,41.70
2018-04-07T23:01:42.644Z,42.80
2018-04-07T23:04:17.077Z,42.70
2018-04-07T23:06:51.592Z,41.40
2018-04-07T23:09:25.918Z,42.10
2018-04-07T23:12:01.263Z,40.80
2018-04-07T23:14:35.987Z,40.80
2018-04-07T23:17:10.309Z,40.70
2018-04-07T23:19:45.949Z,40.60
2018-04-07T23:22:20.364Z,41.20
2018-04-07T23:24:54.655Z,42.10
2018-04-07T23:27:29.085Z,42.00
2018-04-07T23:30:03.430Z,42.70
2018-04-07T23:32:38.635Z,43.30
2018-04-07T23:35:12.954Z,43.30
2018-04-07T23:37:47.410Z,43.90
2018-04-07T23:40:21.813Z,44.10
2018-04-07T23:42:56.097Z,43.90
2018-04-07T23:45:30.512Z,44.40
2018-04-07T23:48:04.947Z,45.10
2018-04-07T23:50:40.016Z,45.30
2018-04-07T23:53:14.323Z,45.30
2018-04-07T23:55:48.729Z,45.40
2018-04-07T23:58:23.117Z,45.90
